createdAt,value
2023-02-05T00:01:31.432Z,101828.08
2023-02-05T00:04:00.301Z,101827.19
2023-02-05T00:06:28.587Z,101829.02
2023-02-05T00:08:58.085Z,101829.98
2023-02-05T00:11:30.043Z,101832.19
2023-02-05T00:13:59.653Z,101831.29
2023-02-05T00:16:28.136Z,101837.63
2023-02-05T00:18:57.220Z,101835.02
2023-02-05T00:21:25.501Z,101831.36
2023-02-05T00:23:53.979Z,101831.52
2023-02-05T00:26:22.254Z,101834.56
2023-02-05T00:28:50.933Z,101835.52
2023-02-05T00:31:20.555Z,101834.81
2023-02-05T00:33:49.848Z,101831.85
2023-02-05T00:36:18.844Z,101827.52
2023-02-05T00:38:47.400Z,101829.07
2023-02-05T00:41:16.107Z,101835.08
2023-02-05T00:43:44.590Z,101836.10
2023-02-05T00:46:14.166Z,101832.48
2023-02-05T00:48:43.209Z,101832.45
2023-02-05T00:51:11.566Z,101832.27
2023-02-05T00:53:41.375Z,101833.61
2023-02-05T00:56:09.767Z,101832.39
2023-02-05T00:58:38.807Z,101836.13
2023-02-05T01:01:07.491Z,101835.79
2023-02-05T01:03:36.116Z,101842.48
2023-02-05T01:06:05.559Z,101844.91
2023-02-05T01:08:34.826Z,101847.64
2023-02-05T01:11:07.097Z,101849.70
2023-02-05T01:13:37.487Z,101846.77
2023-02-05T01:16:06.077Z,101850.56
2023-02-05T01:18:34.997Z,101855.89
2023-02-05T01:21:03.395Z,101857.75
2023-02-05T01:23:31.952Z,101862.71
2023-02-05T01:26:00.638Z,101864.11
2023-02-05T01:28:30.448Z,101865.66
2023-02-05T01:30:59.531Z,101863.77
2023-02-05T01:33:29.768Z,101866.83
2023-02-05T01:35:58.450Z,101868.30
2023-02-05T01:38:27.861Z,101873.58
2023-02-05T01:41:00.202Z,101879.24
2023-02-05T01:43:29.726Z,101882.47
2023-02-05T01:46:19.558Z,101885.70
2023-02-05T01:48:50.854Z,101887.46
2023-02-05T01:51:19.126Z,101888.39
2023-02-05T01:53:47.708Z,101891.67
2023-02-05T01:56:23.251Z,101892.88
2023-02-05T01:58:55.253Z,101895.50
2023-02-05T02:01:24.772Z,101894.84
2023-02-05T02:03:54.325Z,101895.02
2023-02-05T02:06:22.601Z,101892.30
2023-02-05T02:08:51.080Z,101895.05
2023-02-05T02:11:20.995Z,101890.75
2023-02-05T02:13:49.476Z,101895.70
2023-02-05T02:16:18.320Z,101900.85
2023-02-05T02:18:46.746Z,101908.41
2023-02-05T02:21:28.435Z,101913.08
2023-02-05T02:24:18.849Z,101915.42
2023-02-05T02:27:22.846Z,101920.04
2023-02-05T02:30:24.888Z,101917.66
2023-02-05T02:32:56.160Z,101920.42
2023-02-05T02:35:37.127Z,101923.84
2023-02-05T02:38:35.927Z,101926.17
2023-02-05T02:41:19.141Z,101927.00
2023-02-05T02:44:00.564Z,101935.68
2023-02-05T02:46:52.529Z,101938.85
2023-02-05T02:49:33.337Z,101942.05
2023-02-05T02:52:04.072Z,101944.52
2023-02-05T02:54:34.187Z,101946.11
2023-02-05T02:57:03.861Z,101948.60
2023-02-05T02:59:33.504Z,101951.08
2023-02-05T03:02:02.991Z,101954.90
2023-02-05T03:04:37.276Z,101957.52
2023-02-05T03:07:16.869Z,101956.59
2023-02-05T03:10:04.080Z,101955.98
2023-02-05T03:12:36.458Z,101959.33
2023-02-05T03:15:06.969Z,101955.99
2023-02-05T03:17:35.670Z,101950.60
2023-02-05T03:20:30.884Z,101955.63
2023-02-05T03:22:59.361Z,101957.04
2023-02-05T03:25:28.666Z,101962.45
2023-02-05T03:27:58.228Z,101960.66
2023-02-05T03:30:39.163Z,101963.52
2023-02-05T03:33:26.865Z,101962.02
2023-02-05T03:36:04.582Z,101962.61
2023-02-05T03:38:36.941Z,101957.51
2023-02-05T03:41:17.297Z,101960.64
2023-02-05T03:44:07.584Z,101962.64
2023-02-05T03:46:52.142Z,101967.92
2023-02-05T03:49:56.565Z,101965.30
2023-02-05T03:52:32.826Z,101967.86
2023-02-05T03:55:26.484Z,101970.05
2023-02-05T03:58:05.120Z,101966.86
2023-02-05T04:00:34.412Z,101975.48
2023-02-05T04:03:02.893Z,101979.66
2023-02-05T04:05:34.764Z,101977.54
2023-02-05T04:08:04.795Z,101983.98
2023-02-05T04:10:38.060Z,101987.83
2023-02-05T04:13:08.176Z,101990.20
2023-02-05T04:15:37.682Z,101991.22
2023-02-05T04:18:08.619Z,101992.02
2023-02-05T04:20:36.910Z,101998.95
2023-02-05T04:23:05.682Z,101996.97
2023-02-05T04:25:34.443Z,102004.08
2023-02-05T04:28:05.296Z,102013.07
2023-02-05T04:30:34.005Z,102015.23
2023-02-05T04:33:02.885Z,102020.47
2023-02-05T04:35:32.136Z,102019.20
2023-02-05T04:38:01.393Z,102019.45
2023-02-05T04:40:30.481Z,102020.73
2023-02-05T04:42:59.276Z,102014.83
2023-02-05T04:45:31.472Z,102026.41
2023-02-05T04:48:00.749Z,102026.52
2023-02-05T04:50:29.423Z,102026.60
2023-02-05T04:52:58.210Z,102028.77
2023-02-05T04:55:26.690Z,102039.49
2023-02-05T04:57:55.380Z,102038.46
2023-02-05T05:00:23.953Z,102039.73
2023-02-05T05:02:52.842Z,102039.84
2023-02-05T05:05:21.221Z,102041.30
2023-02-05T05:07:50.214Z,102040.55
2023-02-05T05:10:18.900Z,102042.20
2023-02-05T05:12:47.179Z,102046.90
2023-02-05T05:15:15.859Z,102047.45
2023-02-05T05:17:45.704Z,102055.13
2023-02-05T05:20:14.030Z,102056.05
2023-02-05T05:22:44.696Z,102052.88
2023-02-05T05:25:13.168Z,102055.35
2023-02-05T05:27:42.103Z,102060.51
2023-02-05T05:30:11.767Z,102066.14
2023-02-05T05:32:40.648Z,102062.27
2023-02-05T05:35:09.142Z,102067.17
2023-02-05T05:37:38.736Z,102061.94
2023-02-05T05:40:26.674Z,102062.96
2023-02-05T05:43:13.797Z,102063.54
2023-02-05T05:45:42.074Z,102064.60
2023-02-05T05:48:10.649Z,102065.90
2023-02-05T05:50:39.273Z,102067.27
2023-02-05T05:53:07.827Z,102066.64
2023-02-05T05:55:36.552Z,102059.57
2023-02-05T05:58:06.833Z,102065.67
2023-02-05T06:00:36.531Z,102063.46
2023-02-05T06:03:05.422Z,102066.97
2023-02-05T06:05:34.271Z,102068.63
2023-02-05T06:08:03.098Z,102073.58
2023-02-05T06:10:33.219Z,102078.56
2023-02-05T06:13:02.413Z,102077.71
2023-02-05T06:15:32.175Z,102074.73
2023-02-05T06:18:01.225Z,102074.67
2023-02-05T06:20:29.606Z,102080.30
2023-02-05T06:22:57.970Z,102082.34
2023-02-05T06:25:26.465Z,102087.70
2023-02-05T06:27:55.461Z,102084.06
2023-02-05T06:30:23.924Z,102087.52
2023-02-05T06:32:52.544Z,102093.40
2023-02-05T06:35:20.986Z,102100.23
2023-02-05T06:37:49.526Z,102107.23
2023-02-05T06:40:21.328Z,102107.41
2023-02-05T06:42:49.820Z,102110.45
2023-02-05T06:45:18.296Z,102115.17
2023-02-05T06:47:46.873Z,102115.25
2023-02-05T06:50:15.565Z,102109.42
2023-02-05T06:52:44.143Z,102111.19
2023-02-05T06:55:12.414Z,102115.42
2023-02-05T06:57:41.033Z,102117.81
2023-02-05T07:00:10.399Z,102124.70
2023-02-05T07:02:38.809Z,102132.34
2023-02-05T07:05:07.771Z,102130.56
2023-02-05T07:07:36.483Z,102131.70
2023-02-05T07:10:05.771Z,102132.27
2023-02-05T07:12:34.040Z,102133.48
2023-02-05T07:15:02.414Z,102133.13
2023-02-05T07:17:32.536Z,102137.21
2023-02-05T07:20:01.021Z,102147.45
2023-02-05T07:22:29.803Z,102143.65
2023-02-05T07:24:59.000Z,102143.60
2023-02-05T07:27:27.591Z,102144.39
2023-02-05T07:29:56.270Z,102140.35
2023-02-05T07:32:24.746Z,102142.80
2023-02-05T07:34:53.848Z,102146.80
2023-02-05T07:37:22.117Z,102140.41
2023-02-05T07:39:50.604Z,102149.60
2023-02-05T07:42:20.613Z,102153.67
2023-02-05T07:44:55.656Z,102155.75
2023-02-05T07:47:24.022Z,102154.08
2023-02-05T07:49:58.447Z,102159.50
2023-02-05T07:52:26.855Z,102161.89
2023-02-05T07:54:55.812Z,102158.13
2023-02-05T07:57:26.849Z,102157.94
2023-02-05T07:59:59.226Z,102160.36
2023-02-05T08:02:27.802Z,102158.31
2023-02-05T08:04:56.002Z,102158.24
2023-02-05T08:07:24.764Z,102164.73
2023-02-05T08:09:53.449Z,102166.30
2023-02-05T08:12:21.826Z,102170.02
2023-02-05T08:14:52.873Z,102171.73
2023-02-05T08:17:21.148Z,102167.79
2023-02-05T08:19:50.957Z,102171.35
2023-02-05T08:22:19.333Z,102171.02
2023-02-05T08:24:47.716Z,102173.88
2023-02-05T08:27:16.294Z,102174.98
2023-02-05T08:29:48.135Z,102178.94
2023-02-05T08:32:16.330Z,102179.42
2023-02-05T08:34:44.913Z,102177.55
2023-02-05T08:37:13.417Z,102177.77
2023-02-05T08:39:42.182Z,102184.05
2023-02-05T08:42:10.556Z,102183.94
2023-02-05T08:44:38.935Z,102177.34
2023-02-05T08:47:07.414Z,102174.65
2023-02-05T08:49:37.493Z,102178.33
2023-02-05T08:52:06.937Z,102181.25
2023-02-05T08:54:35.341Z,102176.84
2023-02-05T08:57:04.918Z,102181.21
2023-02-05T08:59:33.502Z,102184.09
2023-02-05T09:02:02.499Z,102183.08
2023-02-05T09:04:31.626Z,102182.38
2023-02-05T09:07:00.104Z,102182.73
2023-02-05T09:09:28.652Z,102180.70
2023-02-05T09:11:58.974Z,102182.92
2023-02-05T09:14:27.369Z,102183.58
2023-02-05T09:16:56.145Z,102181.76
2023-02-05T09:19:24.830Z,102179.89
2023-02-05T09:21:54.244Z,102179.22
2023-02-05T09:24:22.816Z,102178.89
2023-02-05T09:26:51.718Z,102175.39
2023-02-05T09:29:20.094Z,102172.56
2023-02-05T09:31:48.713Z,102178.40
2023-02-05T09:34:17.149Z,102174.80
2023-02-05T09:36:45.934Z,102170.23
2023-02-05T09:39:30.726Z,102177.73
2023-02-05T09:42:17.465Z,102176.64
2023-02-05T09:44:51.931Z,102173.55
2023-02-05T09:47:38.539Z,102169.98
2023-02-05T09:50:18.957Z,102171.23
2023-02-05T09:52:51.366Z,102176.00
2023-02-05T09:55:25.989Z,102177.52
2023-02-05T09:57:56.414Z,102175.08
2023-02-05T10:00:29.811Z,102172.73
2023-02-05T10:03:34.899Z,102171.83
2023-02-05T10:06:16.153Z,102167.41
2023-02-05T10:09:04.679Z,102164.41
2023-02-05T10:11:52.098Z,102168.61
2023-02-05T10:14:45.942Z,102165.27
2023-02-05T10:17:35.243Z,102161.81
2023-02-05T10:20:10.280Z,102161.62
2023-02-05T10:23:05.482Z,102168.27
2023-02-05T10:26:12.279Z,102168.76
2023-02-05T10:28:52.734Z,102172.28
2023-02-05T10:31:41.948Z,102167.22
2023-02-05T10:34:51.126Z,102168.89
2023-02-05T10:37:21.556Z,102164.16
2023-02-05T10:39:50.139Z,102168.90
2023-02-05T10:42:37.565Z,102162.67
2023-02-05T10:45:13.936Z,102160.23
2023-02-05T10:47:49.064Z,102161.30
2023-02-05T10:50:20.948Z,102159.59
2023-02-05T10:52:49.297Z,102155.76
2023-02-05T10:55:17.883Z,102155.48
2023-02-05T10:57:46.361Z,102152.32
2023-02-05T11:00:16.744Z,102155.13
2023-02-05T11:02:51.334Z,102152.77
2023-02-05T11:05:24.595Z,102151.09
2023-02-05T11:07:54.220Z,102154.55
2023-02-05T11:10:27.735Z,102152.09
2023-02-05T11:13:16.163Z,102154.58
2023-02-05T11:15:58.287Z,102155.84
2023-02-05T11:18:28.504Z,102157.39
2023-02-05T11:21:06.581Z,102161.16
2023-02-05T11:23:40.143Z,102158.18
2023-02-05T11:26:23.521Z,102162.13
2023-02-05T11:28:52.204Z,102154.80
2023-02-05T11:31:33.491Z,102151.13
2023-02-05T11:34:08.286Z,102155.15
2023-02-05T11:36:38.248Z,102154.58
2023-02-05T11:39:07.108Z,102150.16
2023-02-05T11:41:48.565Z,102151.70
2023-02-05T11:44:18.612Z,102156.75
2023-02-05T11:46:47.843Z,102152.81
2023-02-05T11:49:36.261Z,102153.30
2023-02-05T11:52:10.070Z,102158.80
2023-02-05T11:54:38.850Z,102159.37
2023-02-05T11:57:30.269Z,102159.58
2023-02-05T12:00:08.790Z,102161.52
2023-02-05T12:02:38.767Z,102160.11
2023-02-05T12:05:13.127Z,102156.70
2023-02-05T12:08:19.489Z,102155.72
2023-02-05T12:10:57.999Z,102165.61
2023-02-05T12:13:45.738Z,102167.77
2023-02-05T12:16:46.577Z,102164.27
2023-02-05T12:19:22.635Z,102163.48
2023-02-05T12:21:55.516Z,102167.19
2023-02-05T12:24:32.291Z,102170.02
2023-02-05T12:27:15.727Z,102173.27
2023-02-05T12:30:02.536Z,102179.67
2023-02-05T12:32:37.178Z,102182.56
2023-02-05T12:35:17.820Z,102186.67
2023-02-05T12:37:57.567Z,102185.52
2023-02-05T12:40:38.849Z,102190.55
2023-02-05T12:43:11.316Z,102195.65
2023-02-05T12:45:58.071Z,102200.63
2023-02-05T12:48:39.409Z,102200.36
2023-02-05T12:51:10.978Z,102203.48
2023-02-05T12:53:48.354Z,102201.98
2023-02-05T12:56:22.667Z,102206.64
2023-02-05T12:58:56.251Z,102201.60
2023-02-05T13:01:45.424Z,102205.67
2023-02-05T13:04:36.654Z,102211.81
2023-02-05T13:07:15.878Z,102218.99
2023-02-05T13:09:53.784Z,102217.63
2023-02-05T13:12:23.594Z,102216.45
2023-02-05T13:14:58.022Z,102224.16
2023-02-05T13:17:28.461Z,102224.55
2023-02-05T13:20:01.624Z,102225.11
2023-02-05T13:22:57.553Z,102220.40
2023-02-05T13:25:37.762Z,102220.08
2023-02-05T13:28:40.340Z,102223.33
2023-02-05T13:31:11.641Z,102222.98
2023-02-05T13:33:40.019Z,102229.84
2023-02-05T13:36:31.741Z,102236.35
2023-02-05T13:39:03.394Z,102230.29
2023-02-05T13:41:37.913Z,102235.69
2023-02-05T13:44:14.994Z,102234.02
2023-02-05T13:47:05.699Z,102234.14
2023-02-05T13:49:59.469Z,102239.63
2023-02-05T13:52:46.997Z,102239.01
2023-02-05T13:55:21.526Z,102241.44
2023-02-05T13:58:27.684Z,102238.97
2023-02-05T14:01:03.135Z,102243.48
2023-02-05T14:03:39.478Z,102239.66
2023-02-05T14:06:22.196Z,102231.57
2023-02-05T14:08:52.014Z,102233.34
2023-02-05T14:11:20.703Z,102232.18
2023-02-05T14:14:17.856Z,102233.39
2023-02-05T14:16:50.063Z,102238.38
2023-02-05T14:19:29.768Z,102234.34
2023-02-05T14:22:03.528Z,102233.55
2023-02-05T14:24:46.338Z,102235.02
2023-02-05T14:27:42.384Z,102236.40
2023-02-05T14:30:38.060Z,102236.30
2023-02-05T14:33:28.530Z,102234.48
2023-02-05T14:36:23.035Z,102235.30
2023-02-05T14:39:02.597Z,102242.46
2023-02-05T14:41:40.361Z,102243.61
2023-02-05T14:44:26.770Z,102243.40
2023-02-05T14:47:03.137Z,102247.60
2023-02-05T14:49:39.487Z,102248.90
2023-02-05T14:52:29.060Z,102248.66
2023-02-05T14:55:16.075Z,102254.02
2023-02-05T14:57:55.847Z,102255.08
2023-02-05T15:00:30.153Z,102257.10
2023-02-05T15:03:04.780Z,102261.70
2023-02-05T15:05:44.200Z,102265.69
2023-02-05T15:08:32.860Z,102266.41
2023-02-05T15:11:23.037Z,102269.56
2023-02-05T15:14:24.698Z,102268.28
2023-02-05T15:17:05.892Z,102270.90
2023-02-05T15:19:41.727Z,102270.88
2023-02-05T15:22:36.013Z,102274.52
2023-02-05T15:25:22.929Z,102275.75
2023-02-05T15:27:55.567Z,102278.89
2023-02-05T15:30:25.973Z,102282.55
2023-02-05T15:32:59.736Z,102285.02
2023-02-05T15:35:29.036Z,102284.89
2023-02-05T15:38:25.087Z,102290.58
2023-02-05T15:40:53.548Z,102288.33
2023-02-05T15:43:23.693Z,102289.38
2023-02-05T15:46:03.053Z,102289.90
2023-02-05T15:48:33.103Z,102290.15
2023-02-05T15:51:03.568Z,102291.73
2023-02-05T15:53:57.114Z,102291.77
2023-02-05T15:56:32.554Z,102295.40
2023-02-05T15:59:06.873Z,102294.41
2023-02-05T16:01:46.929Z,102296.27
2023-02-05T16:04:20.294Z,102308.27
2023-02-05T16:06:55.204Z,102301.02
2023-02-05T16:09:25.676Z,102306.82
2023-02-05T16:11:54.361Z,102307.75
2023-02-05T16:14:28.586Z,102310.67
2023-02-05T16:16:59.008Z,102311.23
2023-02-05T16:19:32.517Z,102311.45
2023-02-05T16:22:04.462Z,102314.58
2023-02-05T16:24:38.057Z,102314.41
2023-02-05T16:27:13.726Z,102315.98
2023-02-05T16:29:48.261Z,102312.34
2023-02-05T16:32:38.933Z,102315.39
2023-02-05T16:35:09.248Z,102315.74
2023-02-05T16:37:38.551Z,102312.84
2023-02-05T16:40:10.001Z,102313.41
2023-02-05T16:42:39.607Z,102310.27
2023-02-05T16:45:08.087Z,102312.40
2023-02-05T16:47:37.405Z,102318.41
2023-02-05T16:50:35.641Z,102310.87
2023-02-05T16:53:04.354Z,102314.09
2023-02-05T16:56:02.705Z,102312.70
2023-02-05T16:58:39.303Z,102311.35
2023-02-05T17:01:08.120Z,102316.30
2023-02-05T17:03:41.490Z,102321.27
2023-02-05T17:06:14.893Z,102323.32
2023-02-05T17:08:46.949Z,102323.46
2023-02-05T17:11:37.753Z,102326.56
2023-02-05T17:14:10.642Z,102329.16
2023-02-05T17:16:42.690Z,102319.92
2023-02-05T17:19:26.421Z,102317.91
2023-02-05T17:22:13.669Z,102317.64
2023-02-05T17:24:46.445Z,102321.77
2023-02-05T17:27:27.006Z,102329.82
2023-02-05T17:29:56.101Z,102324.80
2023-02-05T17:32:24.784Z,102325.85
2023-02-05T17:34:53.377Z,102333.21
2023-02-05T17:37:21.854Z,102329.36
2023-02-05T17:39:51.781Z,102330.94
2023-02-05T17:42:24.862Z,102332.52
2023-02-05T17:44:54.256Z,102329.08
2023-02-05T17:47:22.732Z,102328.73
2023-02-05T17:49:51.432Z,102330.52
2023-02-05T17:52:20.108Z,102331.73
2023-02-05T17:54:50.120Z,102335.02
2023-02-05T17:57:20.566Z,102337.27
2023-02-05T17:59:49.030Z,102334.33
2023-02-05T18:02:17.555Z,102335.52
2023-02-05T18:04:50.596Z,102336.03
2023-02-05T18:07:25.429Z,102333.84
2023-02-05T18:09:53.907Z,102332.84
2023-02-05T18:12:22.493Z,102336.10
2023-02-05T18:14:51.070Z,102332.54
2023-02-05T18:17:20.982Z,102332.98
2023-02-05T18:19:49.466Z,102335.62
2023-02-05T18:22:18.051Z,102336.10
2023-02-05T18:24:46.532Z,102342.71
2023-02-05T18:27:14.921Z,102339.56
2023-02-05T18:29:43.906Z,102340.02
2023-02-05T18:32:12.412Z,102340.98
2023-02-05T18:34:41.076Z,102341.42
2023-02-05T18:37:09.648Z,102336.27
2023-02-05T18:39:38.333Z,102335.75
2023-02-05T18:42:07.126Z,102332.09
2023-02-05T18:44:35.973Z,102333.56
2023-02-05T18:47:06.148Z,102330.79
2023-02-05T18:49:35.151Z,102333.50
2023-02-05T18:52:04.710Z,102337.73
2023-02-05T18:54:33.411Z,102339.24
2023-02-05T18:57:02.097Z,102339.36
2023-02-05T18:59:30.782Z,102340.72
2023-02-05T19:01:59.774Z,102343.48
2023-02-05T19:04:33.118Z,102345.02
2023-02-05T19:07:01.674Z,102345.69
2023-02-05T19:09:30.589Z,102343.11
2023-02-05T19:11:59.119Z,102344.83
2023-02-05T19:14:27.912Z,102353.57
2023-02-05T19:16:57.035Z,102355.15
2023-02-05T19:19:25.989Z,102360.14
2023-02-05T19:21:55.910Z,102359.43
2023-02-05T19:24:24.283Z,102360.23
2023-02-05T19:26:56.755Z,102359.65
2023-02-05T19:29:27.084Z,102360.43
2023-02-05T19:31:58.950Z,102359.85
2023-02-05T19:34:29.263Z,102358.73
2023-02-05T19:36:58.667Z,102357.65
2023-02-05T19:39:28.217Z,102363.64
2023-02-05T19:41:56.659Z,102361.02
2023-02-05T19:44:27.521Z,102360.64
2023-02-05T19:46:55.977Z,102358.46
2023-02-05T19:49:24.666Z,102362.34
2023-02-05T19:51:55.597Z,102362.19
2023-02-05T19:54:23.979Z,102362.38
2023-02-05T19:56:52.674Z,102368.71
2023-02-05T19:59:21.556Z,102368.55
2023-02-05T20:01:50.899Z,102367.00
2023-02-05T20:04:25.088Z,102370.46
2023-02-05T20:06:58.426Z,102368.21
2023-02-05T20:09:26.951Z,102372.05
2023-02-05T20:11:55.928Z,102372.65
2023-02-05T20:14:25.137Z,102371.34
2023-02-05T20:16:53.737Z,102372.92
2023-02-05T20:19:22.214Z,102377.58
2023-02-05T20:21:51.184Z,102372.69
2023-02-05T20:24:19.662Z,102374.14
2023-02-05T20:26:48.744Z,102375.05
2023-02-05T20:29:35.999Z,102379.75
2023-02-05T20:32:05.675Z,102382.73
2023-02-05T20:34:36.388Z,102381.04
2023-02-05T20:37:07.169Z,102388.55
2023-02-05T20:39:39.971Z,102394.92
2023-02-05T20:42:10.780Z,102394.77
2023-02-05T20:44:39.290Z,102400.27
2023-02-05T20:47:08.958Z,102406.48
2023-02-05T20:49:40.194Z,102407.02
2023-02-05T20:52:09.054Z,102408.30
2023-02-05T20:54:39.635Z,102412.45
2023-02-05T20:57:09.341Z,102413.20
2023-02-05T20:59:38.834Z,102415.12
2023-02-05T21:02:07.712Z,102416.73
2023-02-05T21:04:36.931Z,102419.52
2023-02-05T21:07:05.304Z,102420.90
2023-02-05T21:09:36.257Z,102420.73
2023-02-05T21:12:05.133Z,102427.23
2023-02-05T21:14:33.834Z,102429.02
2023-02-05T21:17:02.497Z,102435.21
2023-02-05T21:19:32.734Z,102439.48
2023-02-05T21:22:01.613Z,102447.35
2023-02-05T21:24:29.989Z,102455.40
2023-02-05T21:26:58.897Z,102460.70
2023-02-05T21:29:27.357Z,102460.70
2023-02-05T21:31:56.071Z,102468.42
2023-02-05T21:34:26.758Z,102469.46
2023-02-05T21:36:55.462Z,102467.42
2023-02-05T21:39:23.847Z,102468.30
2023-02-05T21:41:53.649Z,102472.77
2023-02-05T21:44:22.455Z,102465.90
2023-02-05T21:46:52.657Z,102466.55
2023-02-05T21:49:20.934Z,102468.57
2023-02-05T21:51:50.539Z,102468.88
2023-02-05T21:54:21.001Z,102469.53
2023-02-05T21:56:49.761Z,102470.69
2023-02-05T21:59:20.293Z,102467.60
2023-02-05T22:01:49.225Z,102466.70
2023-02-05T22:04:17.385Z,102463.27
2023-02-05T22:06:45.934Z,102467.92
2023-02-05T22:09:16.878Z,102464.61
2023-02-05T22:11:45.440Z,102467.71
2023-02-05T22:14:13.950Z,102466.55
2023-02-05T22:16:44.903Z,102460.80
2023-02-05T22:19:19.826Z,102468.27
2023-02-05T22:21:48.496Z,102472.25
2023-02-05T22:24:18.612Z,102470.90
2023-02-05T22:26:47.201Z,102467.00
2023-02-05T22:29:17.612Z,102468.48
2023-02-05T22:31:49.311Z,102465.49
2023-02-05T22:34:17.960Z,102469.40
2023-02-05T22:36:46.641Z,102469.16
2023-02-05T22:39:14.843Z,102475.04
2023-02-05T22:41:43.423Z,102472.19
2023-02-05T22:44:12.082Z,102477.02
2023-02-05T22:46:42.711Z,102472.99
2023-02-05T22:49:12.013Z,102473.96
2023-02-05T22:51:40.904Z,102473.18
2023-02-05T22:54:11.337Z,102477.59
2023-02-05T22:56:39.914Z,102483.27
2023-02-05T22:59:09.117Z,102485.80
2023-02-05T23:01:39.275Z,102485.26
2023-02-05T23:04:08.429Z,102481.30
2023-02-05T23:06:41.717Z,102481.94
2023-02-05T23:09:16.309Z,102481.52
2023-02-05T23:11:49.023Z,102485.11
2023-02-05T23:14:17.707Z,102480.50
2023-02-05T23:16:47.757Z,102479.95
2023-02-05T23:19:19.872Z,102486.27
2023-02-05T23:21:48.376Z,102491.83
2023-02-05T23:24:17.767Z,102485.70
2023-02-05T23:26:48.300Z,102488.85
2023-02-05T23:29:17.317Z,102486.05
2023-02-05T23:31:45.597Z,102492.58
2023-02-05T23:34:14.208Z,102494.45
2023-02-05T23:36:43.553Z,102503.45
2023-02-05T23:39:11.832Z,102498.88
2023-02-05T23:41:40.531Z,102498.48
2023-02-05T23:44:14.476Z,102500.68
2023-02-05T23:46:43.105Z,102500.96
2023-02-05T23:49:12.213Z,102502.94
2023-02-05T23:51:41.201Z,102502.37
2023-02-05T23:54:10.386Z,102503.36
2023-02-05T23:56:40.307Z,102501.08
2023-02-05T23:59:08.995Z,102504.15
